createdAt,value
2022-08-19T00:03:32.032Z,29.40
2022-08-19T00:08:37.612Z,29.50
2022-08-19T00:13:50.784Z,29.50
2022-08-19T00:19:00.799Z,29.60
2022-08-19T00:24:07.147Z,29.60
2022-08-19T00:29:15.564Z,29.70
2022-08-19T00:34:21.574Z,29.70
2022-08-19T00:39:28.265Z,29.90
2022-08-19T00:44:34.544Z,30.00
2022-08-19T00:49:55.252Z,30.20
2022-08-19T00:55:02.425Z,30.40
2022-08-19T01:00:18.746Z,30.70
2022-08-19T01:05:35.984Z,30.90
2022-08-19T01:10:49.133Z,31.30
2022-08-19T01:16:02.278Z,31.80
2022-08-19T01:21:18.417Z,32.10
2022-08-19T01:26:28.085Z,32.20
2022-08-19T01:31:34.538Z,32.20
2022-08-19T01:36:51.555Z,32.30
2022-08-19T01:41:57.959Z,32.50
2022-08-19T01:47:04.166Z,32.60
2022-08-19T01:52:10.241Z,32.60
2022-08-19T01:57:17.307Z,32.40
2022-08-19T02:02:23.319Z,32.70
2022-08-19T02:07:30.947Z,32.80
2022-08-19T02:12:36.805Z,33.20
2022-08-19T02:17:44.228Z,33.80
2022-08-19T02:22:49.777Z,34.50
2022-08-19T02:27:54.701Z,35.10
2022-08-19T02:33:01.013Z,35.10
2022-08-19T02:38:25.186Z,34.70
2022-08-19T02:43:33.851Z,35.00
2022-08-19T02:48:40.881Z,34.80
2022-08-19T02:53:50.750Z,34.90
2022-08-19T02:58:57.989Z,35.10
2022-08-19T03:04:07.068Z,34.90
2022-08-19T03:09:14.280Z,34.50
2022-08-19T03:14:20.631Z,33.50
2022-08-19T03:19:26.202Z,33.60
2022-08-19T03:24:33.184Z,34.40
2022-08-19T03:29:43.250Z,35.30
2022-08-19T03:34:50.125Z,36.30
2022-08-19T03:39:55.890Z,36.40
2022-08-19T03:45:01.711Z,35.30
2022-08-19T03:50:08.724Z,34.30
2022-08-19T03:55:14.409Z,34.70
2022-08-19T04:00:20.498Z,35.80
2022-08-19T04:05:27.805Z,36.40
2022-08-19T04:10:34.263Z,36.10
2022-08-19T04:15:45.994Z,35.00
2022-08-19T04:20:52.221Z,34.40
2022-08-19T04:25:58.860Z,34.60
2022-08-19T04:31:04.685Z,35.30
2022-08-19T04:36:18.944Z,36.10
2022-08-19T04:41:44.895Z,36.80
2022-08-19T04:46:52.986Z,38.10
2022-08-19T04:51:59.266Z,38.00
2022-08-19T04:57:06.095Z,36.90
2022-08-19T05:02:13.494Z,35.60
2022-08-19T05:07:19.739Z,35.00
2022-08-19T05:12:29.334Z,35.10
2022-08-19T05:17:38.639Z,37.40
2022-08-19T05:22:46.273Z,39.90
2022-08-19T05:27:52.822Z,38.60
2022-08-19T05:32:58.925Z,38.00
2022-08-19T05:38:05.008Z,38.80
2022-08-19T05:43:11.720Z,39.60
2022-08-19T05:48:19.898Z,40.80
2022-08-19T05:53:25.813Z,39.10
2022-08-19T05:58:31.771Z,37.80
2022-08-19T06:03:38.946Z,39.00
2022-08-19T06:08:47.631Z,40.50
2022-08-19T06:13:59.795Z,39.10
2022-08-19T06:19:09.804Z,37.60
2022-08-19T06:24:18.547Z,37.10
2022-08-19T06:29:26.627Z,36.90
2022-08-19T06:34:35.091Z,36.50
2022-08-19T06:39:43.862Z,36.10
2022-08-19T06:44:53.279Z,36.00
2022-08-19T06:50:05.727Z,35.90
2022-08-19T06:55:12.231Z,36.30
2022-08-19T07:00:18.303Z,37.10
2022-08-19T07:05:24.717Z,37.30
2022-08-19T07:10:30.496Z,37.80
2022-08-19T07:15:36.057Z,38.90
2022-08-19T07:20:45.973Z,40.00
2022-08-19T07:25:53.230Z,40.60
2022-08-19T07:30:59.191Z,40.10
2022-08-19T07:36:13.768Z,41.80
2022-08-19T07:41:25.918Z,40.40
2022-08-19T07:46:36.124Z,39.30
2022-08-19T07:51:46.138Z,37.80
2022-08-19T07:56:53.368Z,38.10
2022-08-19T08:02:00.849Z,37.50
2022-08-19T08:07:31.547Z,36.70
2022-08-19T08:12:44.863Z,37.00
2022-08-19T08:18:10.801Z,37.80
2022-08-19T08:23:27.530Z,37.40
2022-08-19T08:28:33.409Z,37.30
2022-08-19T08:33:39.345Z,37.20
2022-08-19T08:38:49.503Z,37.70
2022-08-19T08:43:57.843Z,38.10
2022-08-19T08:49:23.628Z,37.70
2022-08-19T08:54:39.069Z,37.20
2022-08-19T08:59:46.492Z,36.40
2022-08-19T09:04:52.411Z,36.30
2022-08-19T09:10:30.819Z,36.40
2022-08-19T09:15:43.766Z,36.20
2022-08-19T09:20:50.538Z,36.20
2022-08-19T09:25:56.172Z,36.10
2022-08-19T09:31:01.813Z,35.70
2022-08-19T09:36:14.191Z,35.50
2022-08-19T09:41:29.878Z,35.20
2022-08-19T09:46:35.401Z,35.00
2022-08-19T09:51:41.707Z,34.70
2022-08-19T09:56:47.512Z,34.50
2022-08-19T10:01:54.359Z,34.30
2022-08-19T10:07:00.326Z,34.40
2022-08-19T10:12:11.298Z,34.30
2022-08-19T10:17:19.967Z,34.30
2022-08-19T10:22:28.023Z,34.10
2022-08-19T10:27:33.946Z,34.00
2022-08-19T10:32:46.372Z,33.80
2022-08-19T10:37:57.320Z,33.70
2022-08-19T10:43:07.667Z,33.40
2022-08-19T10:48:15.637Z,33.30
2022-08-19T10:53:27.980Z,33.20
2022-08-19T10:58:34.014Z,33.20
2022-08-19T11:03:40.149Z,33.10
2022-08-19T11:08:48.363Z,33.00
2022-08-19T11:13:55.541Z,32.80
2022-08-19T11:19:03.588Z,32.80
2022-08-19T11:24:15.518Z,32.70
2022-08-19T11:29:24.401Z,32.70
2022-08-19T11:34:30.933Z,32.50
2022-08-19T11:39:39.359Z,32.40
2022-08-19T11:44:45.409Z,32.40
2022-08-19T11:49:50.950Z,32.40
2022-08-19T11:54:57.290Z,32.30
2022-08-19T12:00:04.091Z,32.20
2022-08-19T12:05:12.923Z,32.20
2022-08-19T12:10:20.033Z,32.20
2022-08-19T12:15:29.780Z,32.10
2022-08-19T12:20:44.730Z,32.00
2022-08-19T12:25:54.466Z,32.00
2022-08-19T12:31:00.760Z,32.00
2022-08-19T12:36:12.633Z,31.90
2022-08-19T12:41:20.893Z,31.90
2022-08-19T12:46:26.483Z,31.70
2022-08-19T12:51:34.089Z,31.60
2022-08-19T12:56:40.129Z,31.50
2022-08-19T13:01:46.492Z,31.40
2022-08-19T13:06:51.992Z,31.30
2022-08-19T13:11:59.370Z,31.10
2022-08-19T13:17:05.603Z,31.00
2022-08-19T13:22:13.273Z,31.00
2022-08-19T13:27:20.997Z,30.90
2022-08-19T13:32:44.865Z,30.70
2022-08-19T13:37:50.697Z,30.20
2022-08-19T13:42:58.076Z,29.70
2022-08-19T13:48:08.887Z,29.60
2022-08-19T13:53:17.964Z,29.40
2022-08-19T13:58:24.855Z,29.10
2022-08-19T14:03:31.257Z,28.90
2022-08-19T14:08:37.571Z,28.30
2022-08-19T14:13:43.179Z,28.10
2022-08-19T14:18:49.110Z,27.90
2022-08-19T14:23:55.910Z,27.90
2022-08-19T14:29:01.968Z,28.00
2022-08-19T14:34:07.553Z,28.00
2022-08-19T16:11:39.703Z,28.00
2022-08-19T16:16:48.191Z,28.50
2022-08-19T16:21:55.796Z,28.50
2022-08-19T16:27:03.063Z,28.40
2022-08-19T16:32:11.797Z,28.40
2022-08-19T16:37:18.952Z,28.40
2022-08-19T16:42:26.767Z,28.40
2022-08-19T16:47:32.286Z,28.50
2022-08-19T16:52:38.921Z,28.40
2022-08-19T16:57:45.045Z,28.40
2022-08-19T17:02:50.953Z,28.50
2022-08-19T17:07:56.859Z,28.50
2022-08-19T17:13:03.182Z,28.60
2022-08-19T17:18:11.816Z,28.60
2022-08-19T17:23:17.666Z,28.60
2022-08-19T17:28:27.424Z,28.70
2022-08-19T17:33:33.098Z,28.70
2022-08-19T17:38:40.656Z,28.70
2022-08-19T17:43:46.781Z,28.70
2022-08-19T17:48:56.587Z,28.70
2022-08-19T17:54:02.686Z,28.80
2022-08-19T17:59:13.835Z,28.90
2022-08-19T18:04:21.211Z,28.90
2022-08-19T18:09:41.468Z,28.90
2022-08-19T18:14:48.898Z,28.90
2022-08-19T18:19:54.587Z,28.90
2022-08-19T18:25:01.101Z,28.90
2022-08-19T18:30:10.099Z,28.90
2022-08-19T18:35:17.967Z,28.80
2022-08-19T18:41:03.878Z,28.80
2022-08-19T18:46:27.277Z,28.90
2022-08-19T18:51:38.842Z,28.90
2022-08-19T18:56:46.238Z,28.90
2022-08-19T19:01:57.887Z,28.80
2022-08-19T19:07:03.611Z,28.80
2022-08-19T19:12:12.624Z,28.90
2022-08-19T19:17:18.402Z,28.90
2022-08-19T19:22:24.965Z,28.80
2022-08-19T19:27:30.430Z,28.80
2022-08-19T19:32:39.534Z,28.80
2022-08-19T19:37:46.687Z,28.80
2022-08-19T19:42:53.543Z,28.80
2022-08-19T19:48:00.042Z,28.80
2022-08-19T19:53:05.830Z,28.80
2022-08-19T19:58:11.459Z,28.80
2022-08-19T20:03:23.063Z,28.90
2022-08-19T20:08:48.040Z,28.90
2022-08-19T20:13:53.791Z,29.00
2022-08-19T20:19:01.159Z,29.00
2022-08-19T20:24:10.082Z,29.00
2022-08-19T20:29:39.252Z,29.00
2022-08-19T20:34:46.123Z,28.30
2022-08-19T20:39:51.537Z,27.50
2022-08-19T20:44:56.877Z,27.10
2022-08-19T20:50:02.688Z,26.80
2022-08-19T20:55:08.804Z,26.80
2022-08-19T21:00:15.185Z,26.80
2022-08-19T21:05:20.849Z,26.50
2022-08-19T21:10:27.801Z,26.40
2022-08-19T23:18:21.552Z,26.10
2022-08-19T23:23:27.975Z,25.90
2022-08-19T23:28:52.006Z,26.00
2022-08-19T23:33:57.467Z,26.10
2022-08-19T23:39:02.751Z,26.20
2022-08-19T23:44:14.719Z,26.20
2022-08-19T23:49:20.883Z,26.00
2022-08-19T23:54:34.425Z,25.90
2022-08-19T23:59:49.658Z,26.00
